sensor_id;sensor_type;location;lat;lon;timestamp;temperature;humidity
6666;DHT22;3369;49.906;8.598;2022-08-21T00:01:05;17.60;90.10
6666;DHT22;3369;49.906;8.598;2022-08-21T00:03:32;17.60;90.10
6666;DHT22;3369;49.906;8.598;2022-08-21T00:05:57;17.60;90.00
6666;DHT22;3369;49.906;8.598;2022-08-21T00:08:23;17.70;90.10
6666;DHT22;3369;49.906;8.598;2022-08-21T00:10:50;17.60;90.00
6666;DHT22;3369;49.906;8.598;2022-08-21T00:13:17;17.60;90.00
6666;DHT22;3369;49.906;8.598;2022-08-21T00:15:43;17.60;90.20
6666;DHT22;3369;49.906;8.598;2022-08-21T00:18:09;17.60;90.30
6666;DHT22;3369;49.906;8.598;2022-08-21T00:20:37;17.50;90.30
6666;DHT22;3369;49.906;8.598;2022-08-21T00:23:03;17.40;90.40
6666;DHT22;3369;49.906;8.598;2022-08-21T00:25:29;17.30;90.70
6666;DHT22;3369;49.906;8.598;2022-08-21T00:27:55;17.20;90.80
6666;DHT22;3369;49.906;8.598;2022-08-21T00:30:23;17.10;90.90
6666;DHT22;3369;49.906;8.598;2022-08-21T00:32:50;17.00;90.90
6666;DHT22;3369;49.906;8.598;2022-08-21T00:35:24;17.00;91.00
6666;DHT22;3369;49.906;8.598;2022-08-21T00:37:50;16.90;91.10
6666;DHT22;3369;49.906;8.598;2022-08-21T00:40:19;16.80;91.20
6666;DHT22;3369;49.906;8.598;2022-08-21T00:42:46;16.80;91.30
6666;DHT22;3369;49.906;8.598;2022-08-21T00:45:12;16.80;91.50
6666;DHT22;3369;49.906;8.598;2022-08-21T00:47:38;16.80;91.50
6666;DHT22;3369;49.906;8.598;2022-08-21T00:50:08;16.80;91.60
6666;DHT22;3369;49.906;8.598;2022-08-21T00:52:36;16.70;91.70
6666;DHT22;3369;49.906;8.598;2022-08-21T00:55:04;16.70;91.90
6666;DHT22;3369;49.906;8.598;2022-08-21T00:57:36;16.60;91.90
6666;DHT22;3369;49.906;8.598;2022-08-21T01:00:09;16.50;92.00
6666;DHT22;3369;49.906;8.598;2022-08-21T01:02:35;16.50;92.40
6666;DHT22;3369;49.906;8.598;2022-08-21T01:05:01;16.40;92.50
6666;DHT22;3369;49.906;8.598;2022-08-21T01:07:27;16.40;92.60
6666;DHT22;3369;49.906;8.598;2022-08-21T01:09:52;16.40;92.60
6666;DHT22;3369;49.906;8.598;2022-08-21T01:12:18;16.30;92.60
6666;DHT22;3369;49.906;8.598;2022-08-21T01:14:44;16.30;92.70
6666;DHT22;3369;49.906;8.598;2022-08-21T01:17:11;16.30;92.90
6666;DHT22;3369;49.906;8.598;2022-08-21T01:19:38;16.30;93.00
6666;DHT22;3369;49.906;8.598;2022-08-21T01:22:05;16.30;93.20
6666;DHT22;3369;49.906;8.598;2022-08-21T01:24:31;16.30;93.30
6666;DHT22;3369;49.906;8.598;2022-08-21T01:26:59;16.30;93.50
6666;DHT22;3369;49.906;8.598;2022-08-21T01:29:47;16.30;93.60
6666;DHT22;3369;49.906;8.598;2022-08-21T01:32:17;16.30;94.00
6666;DHT22;3369;49.906;8.598;2022-08-21T01:34:46;16.30;93.90
6666;DHT22;3369;49.906;8.598;2022-08-21T01:57:25;16.10;94.10
6666;DHT22;3369;49.906;8.598;2022-08-21T01:59:51;16.10;94.10
6666;DHT22;3369;49.906;8.598;2022-08-21T02:02:17;16.10;94.30
6666;DHT22;3369;49.906;8.598;2022-08-21T02:04:42;16.10;94.50
6666;DHT22;3369;49.906;8.598;2022-08-21T02:07:08;16.10;94.80
6666;DHT22;3369;49.906;8.598;2022-08-21T02:09:34;16.10;95.00
6666;DHT22;3369;49.906;8.598;2022-08-21T02:12:00;16.20;95.20
6666;DHT22;3369;49.906;8.598;2022-08-21T02:14:26;16.20;95.30
6666;DHT22;3369;49.906;8.598;2022-08-21T02:16:52;16.30;95.30
6666;DHT22;3369;49.906;8.598;2022-08-21T02:19:18;16.30;95.30
6666;DHT22;3369;49.906;8.598;2022-08-21T02:21:44;16.40;95.40
6666;DHT22;3369;49.906;8.598;2022-08-21T02:24:11;16.40;95.30
6666;DHT22;3369;49.906;8.598;2022-08-21T02:26:37;16.40;95.40
6666;DHT22;3369;49.906;8.598;2022-08-21T02:29:03;16.50;95.40
6666;DHT22;3369;49.906;8.598;2022-08-21T02:31:29;16.50;95.40
6666;DHT22;3369;49.906;8.598;2022-08-21T02:33:54;16.50;95.30
6666;DHT22;3369;49.906;8.598;2022-08-21T02:36:20;16.50;95.30
6666;DHT22;3369;49.906;8.598;2022-08-21T02:38:46;16.50;95.40
6666;DHT22;3369;49.906;8.598;2022-08-21T02:41:15;16.50;95.40
6666;DHT22;3369;49.906;8.598;2022-08-21T02:43:42;16.50;95.30
6666;DHT22;3369;49.906;8.598;2022-08-21T02:46:09;16.50;95.30
6666;DHT22;3369;49.906;8.598;2022-08-21T02:48:36;16.50;95.20
6666;DHT22;3369;49.906;8.598;2022-08-21T02:51:15;16.50;95.20
6666;DHT22;3369;49.906;8.598;2022-08-21T02:53:43;16.50;95.20
6666;DHT22;3369;49.906;8.598;2022-08-21T02:56:12;16.50;95.20
6666;DHT22;3369;49.906;8.598;2022-08-21T02:58:49;16.50;95.20
6666;DHT22;3369;49.906;8.598;2022-08-21T03:01:17;16.50;95.20
6666;DHT22;3369;49.906;8.598;2022-08-21T03:03:45;16.50;95.20
6666;DHT22;3369;49.906;8.598;2022-08-21T03:06:13;16.50;95.20
6666;DHT22;3369;49.906;8.598;2022-08-21T03:08:39;16.40;95.30
6666;DHT22;3369;49.906;8.598;2022-08-21T03:11:05;16.40;95.30
6666;DHT22;3369;49.906;8.598;2022-08-21T03:13:31;16.40;95.30
6666;DHT22;3369;49.906;8.598;2022-08-21T03:15:58;16.40;95.30
6666;DHT22;3369;49.906;8.598;2022-08-21T03:18:23;16.40;95.30
6666;DHT22;3369;49.906;8.598;2022-08-21T03:20:49;16.40;95.40
6666;DHT22;3369;49.906;8.598;2022-08-21T03:23:16;16.30;95.40
6666;DHT22;3369;49.906;8.598;2022-08-21T03:25:43;16.30;95.50
6666;DHT22;3369;49.906;8.598;2022-08-21T03:28:12;16.30;95.60
6666;DHT22;3369;49.906;8.598;2022-08-21T03:30:38;16.30;95.60
6666;DHT22;3369;49.906;8.598;2022-08-21T03:33:03;16.20;95.60
6666;DHT22;3369;49.906;8.598;2022-08-21T03:35:29;16.20;95.70
6666;DHT22;3369;49.906;8.598;2022-08-21T03:37:55;16.20;95.80
6666;DHT22;3369;49.906;8.598;2022-08-21T03:40:22;16.10;95.90
6666;DHT22;3369;49.906;8.598;2022-08-21T03:42:49;16.10;96.00
6666;DHT22;3369;49.906;8.598;2022-08-21T03:45:16;16.10;96.00
6666;DHT22;3369;49.906;8.598;2022-08-21T03:47:57;16.10;96.00
6666;DHT22;3369;49.906;8.598;2022-08-21T03:50:26;16.10;96.20
6666;DHT22;3369;49.906;8.598;2022-08-21T03:52:52;16.00;96.20
6666;DHT22;3369;49.906;8.598;2022-08-21T03:55:17;16.00;96.30
6666;DHT22;3369;49.906;8.598;2022-08-21T03:57:43;15.90;96.40
6666;DHT22;3369;49.906;8.598;2022-08-21T04:00:11;15.90;96.50
6666;DHT22;3369;49.906;8.598;2022-08-21T04:02:38;15.80;96.60
6666;DHT22;3369;49.906;8.598;2022-08-21T04:05:05;15.80;96.70
6666;DHT22;3369;49.906;8.598;2022-08-21T04:07:31;15.80;96.80
6666;DHT22;3369;49.906;8.598;2022-08-21T04:09:56;15.80;96.90
6666;DHT22;3369;49.906;8.598;2022-08-21T04:12:22;15.70;96.90
6666;DHT22;3369;49.906;8.598;2022-08-21T04:14:49;15.80;97.00
6666;DHT22;3369;49.906;8.598;2022-08-21T04:17:17;15.80;97.10
6666;DHT22;3369;49.906;8.598;2022-08-21T04:19:42;15.80;97.20
6666;DHT22;3369;49.906;8.598;2022-08-21T04:22:08;15.80;97.20
6666;DHT22;3369;49.906;8.598;2022-08-21T04:24:34;15.80;97.20
6666;DHT22;3369;49.906;8.598;2022-08-21T04:27:00;15.80;97.30
6666;DHT22;3369;49.906;8.598;2022-08-21T04:29:25;15.80;97.30
6666;DHT22;3369;49.906;8.598;2022-08-21T04:31:51;15.80;97.30
6666;DHT22;3369;49.906;8.598;2022-08-21T04:34:18;15.80;97.30
6666;DHT22;3369;49.906;8.598;2022-08-21T04:36:43;15.90;97.40
6666;DHT22;3369;49.906;8.598;2022-08-21T04:39:09;15.80;97.30
6666;DHT22;3369;49.906;8.598;2022-08-21T04:41:35;15.80;97.40
6666;DHT22;3369;49.906;8.598;2022-08-21T04:44:02;15.80;97.40
6666;DHT22;3369;49.906;8.598;2022-08-21T04:46:28;15.80;97.50
6666;DHT22;3369;49.906;8.598;2022-08-21T04:48:53;15.90;97.60
6666;DHT22;3369;49.906;8.598;2022-08-21T04:51:30;15.80;97.60
6666;DHT22;3369;49.906;8.598;2022-08-21T04:54:06;15.80;97.60
6666;DHT22;3369;49.906;8.598;2022-08-21T04:56:38;15.90;97.70
6666;DHT22;3369;49.906;8.598;2022-08-21T04:59:06;15.90;97.70
6666;DHT22;3369;49.906;8.598;2022-08-21T05:01:35;15.90;97.70
6666;DHT22;3369;49.906;8.598;2022-08-21T05:04:03;15.90;97.70
6666;DHT22;3369;49.906;8.598;2022-08-21T05:06:33;15.90;97.80
6666;DHT22;3369;49.906;8.598;2022-08-21T05:08:59;16.00;97.80
6666;DHT22;3369;49.906;8.598;2022-08-21T05:11:26;16.00;97.80
6666;DHT22;3369;49.906;8.598;2022-08-21T05:13:52;16.00;97.70
6666;DHT22;3369;49.906;8.598;2022-08-21T05:16:17;16.00;97.70
6666;DHT22;3369;49.906;8.598;2022-08-21T05:18:43;16.00;97.60
6666;DHT22;3369;49.906;8.598;2022-08-21T05:21:09;16.10;97.70
6666;DHT22;3369;49.906;8.598;2022-08-21T05:23:35;16.00;97.70
6666;DHT22;3369;49.906;8.598;2022-08-21T05:26:01;16.10;97.90
6666;DHT22;3369;49.906;8.598;2022-08-21T05:28:27;16.00;97.90
6666;DHT22;3369;49.906;8.598;2022-08-21T05:30:53;16.10;98.00
6666;DHT22;3369;49.906;8.598;2022-08-21T05:33:18;16.10;97.90
6666;DHT22;3369;49.906;8.598;2022-08-21T05:35:44;16.10;97.80
6666;DHT22;3369;49.906;8.598;2022-08-21T05:38:10;16.20;97.80
6666;DHT22;3369;49.906;8.598;2022-08-21T05:40:36;16.30;97.70
6666;DHT22;3369;49.906;8.598;2022-08-21T05:43:02;16.30;97.60
6666;DHT22;3369;49.906;8.598;2022-08-21T05:45:31;16.30;97.50
6666;DHT22;3369;49.906;8.598;2022-08-21T05:47:57;16.40;97.50
6666;DHT22;3369;49.906;8.598;2022-08-21T05:50:22;16.50;97.50
6666;DHT22;3369;49.906;8.598;2022-08-21T05:52:48;16.50;97.70
6666;DHT22;3369;49.906;8.598;2022-08-21T05:55:14;16.60;97.40
6666;DHT22;3369;49.906;8.598;2022-08-21T05:57:40;16.60;97.40
6666;DHT22;3369;49.906;8.598;2022-08-21T06:00:09;16.70;97.50
6666;DHT22;3369;49.906;8.598;2022-08-21T06:02:38;16.70;97.70
6666;DHT22;3369;49.906;8.598;2022-08-21T06:05:04;16.80;97.60
6666;DHT22;3369;49.906;8.598;2022-08-21T06:07:31;16.90;97.50
6666;DHT22;3369;49.906;8.598;2022-08-21T06:09:56;17.00;97.40
6666;DHT22;3369;49.906;8.598;2022-08-21T06:12:22;17.10;97.50
6666;DHT22;3369;49.906;8.598;2022-08-21T06:14:48;17.20;97.20
6666;DHT22;3369;49.906;8.598;2022-08-21T06:17:13;17.30;96.90
6666;DHT22;3369;49.906;8.598;2022-08-21T06:19:40;17.30;96.40
6666;DHT22;3369;49.906;8.598;2022-08-21T06:22:06;17.40;96.20
6666;DHT22;3369;49.906;8.598;2022-08-21T06:24:31;17.50;96.10
6666;DHT22;3369;49.906;8.598;2022-08-21T06:26:57;17.60;96.10
6666;DHT22;3369;49.906;8.598;2022-08-21T06:29:23;17.70;96.00
6666;DHT22;3369;49.906;8.598;2022-08-21T06:31:51;17.80;96.00
6666;DHT22;3369;49.906;8.598;2022-08-21T06:34:17;17.90;95.60
6666;DHT22;3369;49.906;8.598;2022-08-21T06:36:43;18.00;95.30
6666;DHT22;3369;49.906;8.598;2022-08-21T06:39:09;18.00;95.00
6666;DHT22;3369;49.906;8.598;2022-08-21T06:41:35;18.10;94.70
6666;DHT22;3369;49.906;8.598;2022-08-21T06:44:01;18.30;94.70
6666;DHT22;3369;49.906;8.598;2022-08-21T06:46:30;18.40;94.50
6666;DHT22;3369;49.906;8.598;2022-08-21T06:48:57;18.50;94.40
6666;DHT22;3369;49.906;8.598;2022-08-21T06:51:24;18.60;94.30
6666;DHT22;3369;49.906;8.598;2022-08-21T06:53:51;18.70;94.20
6666;DHT22;3369;49.906;8.598;2022-08-21T06:56:17;18.90;94.00
6666;DHT22;3369;49.906;8.598;2022-08-21T06:58:43;19.00;93.80
6666;DHT22;3369;49.906;8.598;2022-08-21T07:01:09;19.10;93.70
6666;DHT22;3369;49.906;8.598;2022-08-21T07:03:42;19.30;93.70
6666;DHT22;3369;49.906;8.598;2022-08-21T07:06:09;19.40;93.40
6666;DHT22;3369;49.906;8.598;2022-08-21T07:08:36;19.50;93.20
6666;DHT22;3369;49.906;8.598;2022-08-21T07:11:04;19.60;92.90
6666;DHT22;3369;49.906;8.598;2022-08-21T07:13:32;19.70;92.70
6666;DHT22;3369;49.906;8.598;2022-08-21T07:15:58;19.80;92.50
6666;DHT22;3369;49.906;8.598;2022-08-21T07:18:23;19.90;92.20
6666;DHT22;3369;49.906;8.598;2022-08-21T07:20:49;20.00;92.30
6666;DHT22;3369;49.906;8.598;2022-08-21T07:23:27;20.10;92.10
6666;DHT22;3369;49.906;8.598;2022-08-21T07:25:54;20.20;92.00
6666;DHT22;3369;49.906;8.598;2022-08-21T07:28:20;20.30;92.00
6666;DHT22;3369;49.906;8.598;2022-08-21T07:30:46;20.50;92.10
6666;DHT22;3369;49.906;8.598;2022-08-21T07:33:16;20.70;92.10
6666;DHT22;3369;49.906;8.598;2022-08-21T07:35:41;20.80;91.80
6666;DHT22;3369;49.906;8.598;2022-08-21T07:38:07;21.00;91.60
6666;DHT22;3369;49.906;8.598;2022-08-21T07:40:33;21.10;91.50
6666;DHT22;3369;49.906;8.598;2022-08-21T07:42:58;21.10;91.20
6666;DHT22;3369;49.906;8.598;2022-08-21T07:45:24;21.20;91.00
6666;DHT22;3369;49.906;8.598;2022-08-21T07:47:50;21.30;90.90
6666;DHT22;3369;49.906;8.598;2022-08-21T07:50:16;21.40;90.50
6666;DHT22;3369;49.906;8.598;2022-08-21T07:52:43;21.50;90.60
6666;DHT22;3369;49.906;8.598;2022-08-21T07:55:11;21.50;90.20
6666;DHT22;3369;49.906;8.598;2022-08-21T07:57:37;21.60;90.10
6666;DHT22;3369;49.906;8.598;2022-08-21T08:00:09;21.70;90.20
6666;DHT22;3369;49.906;8.598;2022-08-21T08:02:35;21.90;90.20
6666;DHT22;3369;49.906;8.598;2022-08-21T08:05:05;22.00;90.10
6666;DHT22;3369;49.906;8.598;2022-08-21T08:07:31;22.10;90.00
6666;DHT22;3369;49.906;8.598;2022-08-21T08:09:57;22.30;90.00
6666;DHT22;3369;49.906;8.598;2022-08-21T08:12:24;22.30;89.30
6666;DHT22;3369;49.906;8.598;2022-08-21T08:14:59;22.40;88.90
6666;DHT22;3369;49.906;8.598;2022-08-21T08:17:25;22.60;89.10
6666;DHT22;3369;49.906;8.598;2022-08-21T08:19:51;22.70;89.10
6666;DHT22;3369;49.906;8.598;2022-08-21T08:22:19;22.80;89.00
6666;DHT22;3369;49.906;8.598;2022-08-21T08:24:46;22.90;88.70
6666;DHT22;3369;49.906;8.598;2022-08-21T08:27:12;23.00;88.10
6666;DHT22;3369;49.906;8.598;2022-08-21T08:29:38;23.00;88.20
6666;DHT22;3369;49.906;8.598;2022-08-21T08:32:04;23.20;88.50
6666;DHT22;3369;49.906;8.598;2022-08-21T08:34:33;23.30;88.60
6666;DHT22;3369;49.906;8.598;2022-08-21T08:36:58;23.40;87.90
6666;DHT22;3369;49.906;8.598;2022-08-21T08:39:24;23.50;87.10
6666;DHT22;3369;49.906;8.598;2022-08-21T08:41:58;23.70;86.30
6666;DHT22;3369;49.906;8.598;2022-08-21T08:44:25;23.80;85.90
6666;DHT22;3369;49.906;8.598;2022-08-21T08:46:51;23.90;86.10
6666;DHT22;3369;49.906;8.598;2022-08-21T08:54:42;24.00;84.40
6666;DHT22;3369;49.906;8.598;2022-08-21T08:57:16;24.10;84.10
6666;DHT22;3369;49.906;8.598;2022-08-21T08:59:45;24.20;84.80
6666;DHT22;3369;49.906;8.598;2022-08-21T09:02:15;24.30;84.10
6666;DHT22;3369;49.906;8.598;2022-08-21T09:04:43;24.40;83.50
6666;DHT22;3369;49.906;8.598;2022-08-21T09:07:24;24.50;83.50
6666;DHT22;3369;49.906;8.598;2022-08-21T09:10:20;24.60;83.30
6666;DHT22;3369;49.906;8.598;2022-08-21T09:16:18;24.80;79.50
6666;DHT22;3369;49.906;8.598;2022-08-21T09:21:37;24.90;78.80
6666;DHT22;3369;49.906;8.598;2022-08-21T09:24:22;25.00;78.00
6666;DHT22;3369;49.906;8.598;2022-08-21T09:27:07;25.10;77.30
6666;DHT22;3369;49.906;8.598;2022-08-21T09:29:36;25.20;77.10
6666;DHT22;3369;49.906;8.598;2022-08-21T09:32:04;25.30;76.70
6666;DHT22;3369;49.906;8.598;2022-08-21T09:34:34;25.40;75.50
6666;DHT22;3369;49.906;8.598;2022-08-21T09:37:01;25.60;73.80
6666;DHT22;3369;49.906;8.598;2022-08-21T09:39:31;25.70;72.30
6666;DHT22;3369;49.906;8.598;2022-08-21T09:42:00;25.90;71.60
6666;DHT22;3369;49.906;8.598;2022-08-21T09:44:29;25.90;71.30
6666;DHT22;3369;49.906;8.598;2022-08-21T09:46:55;26.00;70.60
6666;DHT22;3369;49.906;8.598;2022-08-21T09:49:37;25.80;69.90
6666;DHT22;3369;49.906;8.598;2022-08-21T09:52:06;25.70;69.30
6666;DHT22;3369;49.906;8.598;2022-08-21T09:54:40;25.70;68.40
6666;DHT22;3369;49.906;8.598;2022-08-21T09:57:16;25.70;67.90
6666;DHT22;3369;49.906;8.598;2022-08-21T10:02:41;26.00;67.60
6666;DHT22;3369;49.906;8.598;2022-08-21T10:05:17;26.00;65.50
6666;DHT22;3369;49.906;8.598;2022-08-21T10:07:43;26.10;66.50
6666;DHT22;3369;49.906;8.598;2022-08-21T10:10:25;26.20;67.60
6666;DHT22;3369;49.906;8.598;2022-08-21T10:16:06;26.50;65.60
6666;DHT22;3369;49.906;8.598;2022-08-21T10:18:37;26.40;65.50
6666;DHT22;3369;49.906;8.598;2022-08-21T10:21:19;26.30;65.20
6666;DHT22;3369;49.906;8.598;2022-08-21T10:32:37;26.40;64.70
6666;DHT22;3369;49.906;8.598;2022-08-21T10:35:14;26.50;64.10
6666;DHT22;3369;49.906;8.598;2022-08-21T10:37:57;26.50;63.70
6666;DHT22;3369;49.906;8.598;2022-08-21T10:49:42;27.10;65.20
6666;DHT22;3369;49.906;8.598;2022-08-21T10:52:36;27.20;63.50
6666;DHT22;3369;49.906;8.598;2022-08-21T10:58:14;27.10;62.90
6666;DHT22;3369;49.906;8.598;2022-08-21T11:03:23;26.70;60.60
6666;DHT22;3369;49.906;8.598;2022-08-21T11:05:59;26.60;61.30
6666;DHT22;3369;49.906;8.598;2022-08-21T11:08:44;26.60;61.80
6666;DHT22;3369;49.906;8.598;2022-08-21T11:11:39;26.70;62.10
6666;DHT22;3369;49.906;8.598;2022-08-21T11:17:12;26.90;61.80
6666;DHT22;3369;49.906;8.598;2022-08-21T11:19:42;26.80;60.10
6666;DHT22;3369;49.906;8.598;2022-08-21T11:22:15;26.70;59.70
6666;DHT22;3369;49.906;8.598;2022-08-21T11:27:27;26.90;59.60
6666;DHT22;3369;49.906;8.598;2022-08-21T11:29:56;26.90;59.10
6666;DHT22;3369;49.906;8.598;2022-08-21T11:38:31;26.50;61.20
6666;DHT22;3369;49.906;8.598;2022-08-21T11:43:42;26.80;61.30
6666;DHT22;3369;49.906;8.598;2022-08-21T11:46:14;26.90;60.70
6666;DHT22;3369;49.906;8.598;2022-08-21T11:49:08;27.00;60.40
6666;DHT22;3369;49.906;8.598;2022-08-21T11:54:40;27.10;59.30
6666;DHT22;3369;49.906;8.598;2022-08-21T12:00:04;27.10;58.20
6666;DHT22;3369;49.906;8.598;2022-08-21T12:02:36;27.20;58.40
6666;DHT22;3369;49.906;8.598;2022-08-21T12:05:21;27.30;58.70
6666;DHT22;3369;49.906;8.598;2022-08-21T12:07:47;27.40;58.50
6666;DHT22;3369;49.906;8.598;2022-08-21T12:10:16;27.30;57.40
6666;DHT22;3369;49.906;8.598;2022-08-21T12:12:46;27.40;58.20
6666;DHT22;3369;49.906;8.598;2022-08-21T12:18:06;27.50;56.10
6666;DHT22;3369;49.906;8.598;2022-08-21T12:21:16;27.50;56.40
6666;DHT22;3369;49.906;8.598;2022-08-21T12:26:35;27.50;57.20
6666;DHT22;3369;49.906;8.598;2022-08-21T12:29:12;27.60;56.90
6666;DHT22;3369;49.906;8.598;2022-08-21T12:32:01;27.60;57.10
6666;DHT22;3369;49.906;8.598;2022-08-21T12:34:40;27.60;56.70
6666;DHT22;3369;49.906;8.598;2022-08-21T12:37:24;27.70;56.50
6666;DHT22;3369;49.906;8.598;2022-08-21T12:39:57;27.70;56.70
6666;DHT22;3369;49.906;8.598;2022-08-21T12:42:33;27.80;57.00
6666;DHT22;3369;49.906;8.598;2022-08-21T12:45:11;27.90;57.20
6666;DHT22;3369;49.906;8.598;2022-08-21T12:50:36;28.00;55.90
6666;DHT22;3369;49.906;8.598;2022-08-21T12:53:12;28.00;55.10
6666;DHT22;3369;49.906;8.598;2022-08-21T12:55:42;28.00;55.20
6666;DHT22;3369;49.906;8.598;2022-08-21T12:58:21;28.00;55.20
6666;DHT22;3369;49.906;8.598;2022-08-21T13:01:02;28.00;55.10
6666;DHT22;3369;49.906;8.598;2022-08-21T13:03:29;28.10;55.50
6666;DHT22;3369;49.906;8.598;2022-08-21T13:05:57;28.20;54.30
6666;DHT22;3369;49.906;8.598;2022-08-21T13:08:24;28.20;54.60
6666;DHT22;3369;49.906;8.598;2022-08-21T13:11:00;28.20;54.10
6666;DHT22;3369;49.906;8.598;2022-08-21T13:13:28;28.30;53.90
6666;DHT22;3369;49.906;8.598;2022-08-21T13:15:59;28.30;54.70
6666;DHT22;3369;49.906;8.598;2022-08-21T13:18:29;28.30;53.20
6666;DHT22;3369;49.906;8.598;2022-08-21T13:21:14;28.30;53.20
6666;DHT22;3369;49.906;8.598;2022-08-21T13:23:40;28.30;53.30
6666;DHT22;3369;49.906;8.598;2022-08-21T13:26:20;28.40;54.10
6666;DHT22;3369;49.906;8.598;2022-08-21T13:28:47;28.40;53.80
6666;DHT22;3369;49.906;8.598;2022-08-21T13:31:20;28.40;54.00
6666;DHT22;3369;49.906;8.598;2022-08-21T13:33:47;28.40;53.20
6666;DHT22;3369;49.906;8.598;2022-08-21T13:36:18;28.30;53.00
6666;DHT22;3369;49.906;8.598;2022-08-21T13:38:46;28.40;52.30
6666;DHT22;3369;49.906;8.598;2022-08-21T13:41:24;28.40;52.60
6666;DHT22;3369;49.906;8.598;2022-08-21T13:43:58;28.30;52.50
6666;DHT22;3369;49.906;8.598;2022-08-21T13:46:28;28.40;52.60
6666;DHT22;3369;49.906;8.598;2022-08-21T13:48:55;28.40;52.10
6666;DHT22;3369;49.906;8.598;2022-08-21T13:51:22;28.30;51.80
6666;DHT22;3369;49.906;8.598;2022-08-21T14:16:01;28.10;50.40
6666;DHT22;3369;49.906;8.598;2022-08-21T14:18:27;27.90;51.80
6666;DHT22;3369;49.906;8.598;2022-08-21T14:21:07;27.90;51.80
6666;DHT22;3369;49.906;8.598;2022-08-21T14:23:33;27.90;50.60
6666;DHT22;3369;49.906;8.598;2022-08-21T14:26:00;27.90;51.40
6666;DHT22;3369;49.906;8.598;2022-08-21T14:28:30;27.90;51.80
6666;DHT22;3369;49.906;8.598;2022-08-21T14:30:58;28.00;51.80
6666;DHT22;3369;49.906;8.598;2022-08-21T14:33:35;28.00;51.60
6666;DHT22;3369;49.906;8.598;2022-08-21T14:36:01;28.00;51.70
6666;DHT22;3369;49.906;8.598;2022-08-21T14:38:27;28.00;52.00
6666;DHT22;3369;49.906;8.598;2022-08-21T14:40:57;28.00;51.70
6666;DHT22;3369;49.906;8.598;2022-08-21T14:43:26;28.00;51.90
6666;DHT22;3369;49.906;8.598;2022-08-21T14:45:52;27.90;52.20
6666;DHT22;3369;49.906;8.598;2022-08-21T14:48:18;28.00;52.50
6666;DHT22;3369;49.906;8.598;2022-08-21T14:50:43;28.00;52.50
6666;DHT22;3369;49.906;8.598;2022-08-21T14:53:09;28.10;52.40
6666;DHT22;3369;49.906;8.598;2022-08-21T14:55:37;28.10;52.60
6666;DHT22;3369;49.906;8.598;2022-08-21T14:58:21;28.00;52.80
6666;DHT22;3369;49.906;8.598;2022-08-21T15:00:49;28.10;53.10
6666;DHT22;3369;49.906;8.598;2022-08-21T15:03:15;28.10;53.00
6666;DHT22;3369;49.906;8.598;2022-08-21T15:05:41;28.10;52.80
6666;DHT22;3369;49.906;8.598;2022-08-21T15:08:06;28.10;52.50
6666;DHT22;3369;49.906;8.598;2022-08-21T15:10:34;28.00;52.70
6666;DHT22;3369;49.906;8.598;2022-08-21T15:13:01;28.00;52.70
6666;DHT22;3369;49.906;8.598;2022-08-21T15:15:27;28.00;52.90
6666;DHT22;3369;49.906;8.598;2022-08-21T15:17:53;28.00;53.10
6666;DHT22;3369;49.906;8.598;2022-08-21T15:20:19;28.00;53.00
6666;DHT22;3369;49.906;8.598;2022-08-21T15:22:45;28.00;52.50
6666;DHT22;3369;49.906;8.598;2022-08-21T15:25:11;27.90;51.60
6666;DHT22;3369;49.906;8.598;2022-08-21T15:27:36;27.80;51.30
6666;DHT22;3369;49.906;8.598;2022-08-21T15:30:04;27.80;51.50
6666;DHT22;3369;49.906;8.598;2022-08-21T15:32:30;27.80;51.80
6666;DHT22;3369;49.906;8.598;2022-08-21T15:34:57;27.80;51.40
6666;DHT22;3369;49.906;8.598;2022-08-21T15:37:23;27.90;51.30
6666;DHT22;3369;49.906;8.598;2022-08-21T15:39:50;27.90;51.50
6666;DHT22;3369;49.906;8.598;2022-08-21T15:42:17;27.80;51.40
6666;DHT22;3369;49.906;8.598;2022-08-21T15:44:44;27.80;51.70
6666;DHT22;3369;49.906;8.598;2022-08-21T15:47:13;27.70;51.90
6666;DHT22;3369;49.906;8.598;2022-08-21T15:49:40;27.60;51.50
6666;DHT22;3369;49.906;8.598;2022-08-21T15:52:13;27.60;51.00
6666;DHT22;3369;49.906;8.598;2022-08-21T15:54:39;27.60;51.30
6666;DHT22;3369;49.906;8.598;2022-08-21T15:57:05;27.60;51.10
6666;DHT22;3369;49.906;8.598;2022-08-21T15:59:37;27.60;50.90
6666;DHT22;3369;49.906;8.598;2022-08-21T16:02:05;27.60;50.80
6666;DHT22;3369;49.906;8.598;2022-08-21T16:04:31;27.60;50.70
6666;DHT22;3369;49.906;8.598;2022-08-21T16:06:57;27.60;50.90
6666;DHT22;3369;49.906;8.598;2022-08-21T16:09:23;27.50;50.80
6666;DHT22;3369;49.906;8.598;2022-08-21T16:11:49;27.50;50.90
6666;DHT22;3369;49.906;8.598;2022-08-21T16:14:15;27.50;50.30
6666;DHT22;3369;49.906;8.598;2022-08-21T16:16:42;27.40;50.50
6666;DHT22;3369;49.906;8.598;2022-08-21T16:19:09;27.40;50.60
6666;DHT22;3369;49.906;8.598;2022-08-21T16:21:35;27.30;50.50
6666;DHT22;3369;49.906;8.598;2022-08-21T16:24:01;27.30;50.70
6666;DHT22;3369;49.906;8.598;2022-08-21T16:26:28;27.30;50.80
6666;DHT22;3369;49.906;8.598;2022-08-21T16:28:55;27.20;50.80
6666;DHT22;3369;49.906;8.598;2022-08-21T16:31:23;27.20;50.90
6666;DHT22;3369;49.906;8.598;2022-08-21T16:33:51;27.20;50.90
6666;DHT22;3369;49.906;8.598;2022-08-21T16:36:18;27.20;51.00
6666;DHT22;3369;49.906;8.598;2022-08-21T16:38:45;27.20;51.50
6666;DHT22;3369;49.906;8.598;2022-08-21T16:41:17;27.20;50.70
6666;DHT22;3369;49.906;8.598;2022-08-21T16:43:43;27.20;50.90
6666;DHT22;3369;49.906;8.598;2022-08-21T16:46:11;27.20;51.10
6666;DHT22;3369;49.906;8.598;2022-08-21T16:48:39;27.20;51.10
6666;DHT22;3369;49.906;8.598;2022-08-21T16:51:05;27.10;50.80
6666;DHT22;3369;49.906;8.598;2022-08-21T16:53:31;27.00;50.80
6666;DHT22;3369;49.906;8.598;2022-08-21T16:55:57;27.00;51.00
6666;DHT22;3369;49.906;8.598;2022-08-21T16:58:29;26.90;51.30
6666;DHT22;3369;49.906;8.598;2022-08-21T17:00:56;26.90;51.50
6666;DHT22;3369;49.906;8.598;2022-08-21T17:03:27;26.90;51.60
6666;DHT22;3369;49.906;8.598;2022-08-21T17:05:54;26.90;52.20
6666;DHT22;3369;49.906;8.598;2022-08-21T17:08:20;26.80;51.60
6666;DHT22;3369;49.906;8.598;2022-08-21T17:10:48;26.80;51.80
6666;DHT22;3369;49.906;8.598;2022-08-21T17:13:14;26.70;51.90
6666;DHT22;3369;49.906;8.598;2022-08-21T17:15:41;26.60;52.00
6666;DHT22;3369;49.906;8.598;2022-08-21T17:18:13;26.60;52.70
6666;DHT22;3369;49.906;8.598;2022-08-21T17:20:40;26.50;52.20
6666;DHT22;3369;49.906;8.598;2022-08-21T17:23:06;26.40;52.40
6666;DHT22;3369;49.906;8.598;2022-08-21T17:25:33;26.30;52.60
6666;DHT22;3369;49.906;8.598;2022-08-21T17:27:59;26.30;52.70
6666;DHT22;3369;49.906;8.598;2022-08-21T17:30:25;26.30;53.00
6666;DHT22;3369;49.906;8.598;2022-08-21T17:32:54;26.20;53.20
6666;DHT22;3369;49.906;8.598;2022-08-21T17:35:21;26.10;53.40
6666;DHT22;3369;49.906;8.598;2022-08-21T17:37:47;26.00;53.60
6666;DHT22;3369;49.906;8.598;2022-08-21T17:40:14;25.90;53.80
6666;DHT22;3369;49.906;8.598;2022-08-21T17:42:44;25.90;54.10
6666;DHT22;3369;49.906;8.598;2022-08-21T17:45:13;25.80;54.40
6666;DHT22;3369;49.906;8.598;2022-08-21T17:47:39;25.70;55.10
6666;DHT22;3369;49.906;8.598;2022-08-21T17:50:08;25.60;54.70
6666;DHT22;3369;49.906;8.598;2022-08-21T17:52:34;25.60;55.00
6666;DHT22;3369;49.906;8.598;2022-08-21T17:55:00;25.40;55.10
6666;DHT22;3369;49.906;8.598;2022-08-21T17:57:29;25.30;55.30
6666;DHT22;3369;49.906;8.598;2022-08-21T17:59:56;25.30;55.50
6666;DHT22;3369;49.906;8.598;2022-08-21T18:02:22;25.20;55.70
6666;DHT22;3369;49.906;8.598;2022-08-21T18:04:49;25.10;56.00